Share

El Salvador, El Salvador

El Salvador International (MSLP) Elev 82 ft | 13.44 °N, 89.06 °W | Change Station

Current weather conditions updated 36 minutes ago

Clear
Clear
73 °F
Feels Like 73 °F
N
2
Wind Variable Wind from NE
Sunrise 5:41 AM
Sunset 6:09 PM
Moon Waning Gibbous

Today is forecast to be nearly the same temperature as yesterday.

Pressure 29.80 in
Visibility -9999.0 miles
Clouds
Dew Point 72 °F
Humidity 94%
Rainfall 0.00 in
Snow Depth Not available.
UV Not available.
Pollen Not available.
Air Quality Not available.
Flu Activity Not available.
METAR MSLP 181050Z 05002KT CAVOK 23/22 Q1009 A2982

More Conditions Fewer Conditions

Pressure 29.80 in
Visibility -9999.0 miles
Clouds
Dew Point 72 °F
Humidity 94%
Rainfall 0.00 in
Snow Depth Not available.
UV Not available.
Pollen Not available.
Air Quality Not available.
Flu Activity Not available.
METAR MSLP 181050Z 05002KT CAVOK 23/22 Q1009 A2982

More Conditions Fewer Conditions

10-Day Forecast

Almanac

Astronomy

Apr. 18, 2014 Rise Set
Actual Time 5:41 AM CST 6:09 PM CST
Civil Twilight 5:19 AM CST 6:31 PM CST
Nautical Twilight 4:54 AM CST 6:56 PM CST
Astronomical Twilight 4:28 AM CST 7:22 PM CST
Moon 9:32 PM CST 8:24 AM CST
Length of Visible Light 13h 11m
Length of Day
12h 28m
Tomorrow will be 0m 42s longer.
Waning Gibbous, 88% of the Moon is Illuminated
Today
Waning Gibbous
Apr 22
Last Quarter
Apr 29
New
May 6
First Quarter
May 14
Full

Yesterday's Extremes

Country Highs Country Lows

Community

  • SUNRISE THROUGH THE TREES.
    SUNRISE THROUGH THE TREES.
  • Dog Wood Blossoms
    Dog Wood Blossoms
  • Morning Light
    Morning Light
  • New Day
    New Day
  • Lake Michigan Sunrise
    Lake Michigan Sunrise

WunderPhotos

Upload Photos

1,702,313 photos uploaded!

Nearby

Snow Depth

Not available.

Coastal Water Temperatures

Place Temperature
No Stations Reporting

Earthquake Activity

City Distance Mag. Time & Date
No recent earthquake activity has been reported nearby.
Minimum magnitude displayed is 2.5.

Nearby Weather Stations

Station Location Temp. Dew Point Humidity Wind Precip. Elev Updated Type
Antiguo Cuscatlan 69.3 °F 69 °F 99% SW  at  0.0 mph 0.00 in / hr 2635 ft 5:26 AM CST Rapid Fire
Escalon - Zona Rosa, San Salvador 71.2 °F 68 °F 88% WSW  at  0.0 mph 0.00 in / hr 2654 ft 5:11 AM CST Normal
Boulevard Santa Elena, La Libertad 69.8 °F 66 °F 89% South  at  1.6 mph 0.00 in / hr 2792 ft 5:26 AM CST Rapid Fire

Show More Stations Show Fewer Stations

What do you think?

We're not finished. Please let us know what you like, what you don't like, and what you are still missing.